sensor_id;sensor_type;location;lat;lon;timestamp;P1;durP1;ratioP1;P2;durP2;ratioP2
49177;SDS011;35016;55.674;37.468;2022-09-16T00:01:22;10.35;;;6.20;;
49177;SDS011;35016;55.674;37.468;2022-09-16T00:03:57;13.75;;;7.95;;
49177;SDS011;35016;55.674;37.468;2022-09-16T00:06:36;12.98;;;7.38;;
49177;SDS011;35016;55.674;37.468;2022-09-16T00:09:03;10.98;;;6.85;;
49177;SDS011;35016;55.674;37.468;2022-09-16T00:11:31;12.27;;;6.88;;
49177;SDS011;35016;55.674;37.468;2022-09-16T00:14:03;12.27;;;7.10;;
49177;SDS011;35016;55.674;37.468;2022-09-16T00:16:33;12.63;;;7.40;;
49177;SDS011;35016;55.674;37.468;2022-09-16T00:19:02;13.65;;;8.05;;
49177;SDS011;35016;55.674;37.468;2022-09-16T00:21:30;11.45;;;7.10;;
49177;SDS011;35016;55.674;37.468;2022-09-16T00:24:00;11.15;;;7.05;;
49177;SDS011;35016;55.674;37.468;2022-09-16T00:26:29;11.98;;;7.28;;
49177;SDS011;35016;55.674;37.468;2022-09-16T00:29:24;11.13;;;7.13;;
49177;SDS011;35016;55.674;37.468;2022-09-16T00:31:59;10.75;;;6.95;;
49177;SDS011;35016;55.674;37.468;2022-09-16T00:34:26;11.43;;;7.15;;
49177;SDS011;35016;55.674;37.468;2022-09-16T00:36:57;11.43;;;6.60;;
49177;SDS011;35016;55.674;37.468;2022-09-16T00:39:24;10.95;;;7.53;;
49177;SDS011;35016;55.674;37.468;2022-09-16T00:41:51;12.25;;;8.55;;
49177;SDS011;35016;55.674;37.468;2022-09-16T00:47:23;11.52;;;6.55;;
49177;SDS011;35016;55.674;37.468;2022-09-16T00:49:55;12.77;;;8.32;;
49177;SDS011;35016;55.674;37.468;2022-09-16T00:52:34;11.25;;;7.07;;
49177;SDS011;35016;55.674;37.468;2022-09-16T00:55:03;12.45;;;6.95;;
49177;SDS011;35016;55.674;37.468;2022-09-16T00:57:36;11.35;;;7.32;;
49177;SDS011;35016;55.674;37.468;2022-09-16T01:00:05;13.63;;;7.30;;
49177;SDS011;35016;55.674;37.468;2022-09-16T01:02:39;10.60;;;6.40;;
49177;SDS011;35016;55.674;37.468;2022-09-16T01:05:11;11.88;;;7.45;;
49177;SDS011;35016;55.674;37.468;2022-09-16T01:07:44;12.60;;;6.85;;
49177;SDS011;35016;55.674;37.468;2022-09-16T01:10:22;11.75;;;7.63;;
49177;SDS011;35016;55.674;37.468;2022-09-16T01:12:53;12.13;;;6.63;;
49177;SDS011;35016;55.674;37.468;2022-09-16T01:15:23;11.38;;;7.32;;
49177;SDS011;35016;55.674;37.468;2022-09-16T01:18:10;10.20;;;5.47;;
49177;SDS011;35016;55.674;37.468;2022-09-16T01:28:56;12.85;;;7.65;;
49177;SDS011;35016;55.674;37.468;2022-09-16T01:34:33;13.63;;;6.63;;
49177;SDS011;35016;55.674;37.468;2022-09-16T01:48:43;11.98;;;6.82;;
49177;SDS011;35016;55.674;37.468;2022-09-16T01:56:44;11.48;;;6.20;;
49177;SDS011;35016;55.674;37.468;2022-09-16T01:59:20;12.32;;;7.03;;
49177;SDS011;35016;55.674;37.468;2022-09-16T02:01:53;11.50;;;6.78;;
49177;SDS011;35016;55.674;37.468;2022-09-16T02:04:42;11.35;;;6.13;;
49177;SDS011;35016;55.674;37.468;2022-09-16T02:07:17;11.48;;;6.32;;
49177;SDS011;35016;55.674;37.468;2022-09-16T02:09:53;12.65;;;7.05;;
49177;SDS011;35016;55.674;37.468;2022-09-16T02:12:24;12.02;;;6.80;;
49177;SDS011;35016;55.674;37.468;2022-09-16T02:14:58;12.32;;;6.53;;
49177;SDS011;35016;55.674;37.468;2022-09-16T02:17:32;12.32;;;7.30;;
49177;SDS011;35016;55.674;37.468;2022-09-16T02:22:54;12.98;;;6.93;;
49177;SDS011;35016;55.674;37.468;2022-09-16T02:25:30;11.25;;;6.90;;
49177;SDS011;35016;55.674;37.468;2022-09-16T02:28:01;11.18;;;6.82;;
49177;SDS011;35016;55.674;37.468;2022-09-16T02:30:31;13.15;;;7.85;;
49177;SDS011;35016;55.674;37.468;2022-09-16T02:33:03;11.40;;;6.60;;
49177;SDS011;35016;55.674;37.468;2022-09-16T02:35:33;11.18;;;6.63;;
49177;SDS011;35016;55.674;37.468;2022-09-16T02:38:03;13.80;;;7.95;;
49177;SDS011;35016;55.674;37.468;2022-09-16T02:40:43;10.73;;;5.88;;
49177;SDS011;35016;55.674;37.468;2022-09-16T02:43:16;12.82;;;7.00;;
49177;SDS011;35016;55.674;37.468;2022-09-16T02:45:46;13.65;;;7.07;;
49177;SDS011;35016;55.674;37.468;2022-09-16T02:48:19;10.93;;;6.43;;
49177;SDS011;35016;55.674;37.468;2022-09-16T02:51:25;10.90;;;7.07;;
49177;SDS011;35016;55.674;37.468;2022-09-16T02:53:50;12.15;;;6.90;;
49177;SDS011;35016;55.674;37.468;2022-09-16T02:56:26;13.02;;;7.05;;
49177;SDS011;35016;55.674;37.468;2022-09-16T02:59:00;9.38;;;5.25;;
49177;SDS011;35016;55.674;37.468;2022-09-16T03:01:32;12.27;;;5.50;;
49177;SDS011;35016;55.674;37.468;2022-09-16T03:04:04;10.07;;;5.82;;
49177;SDS011;35016;55.674;37.468;2022-09-16T03:06:32;11.80;;;6.68;;
49177;SDS011;35016;55.674;37.468;2022-09-16T03:09:04;11.68;;;6.72;;
49177;SDS011;35016;55.674;37.468;2022-09-16T03:20:11;11.52;;;6.30;;
49177;SDS011;35016;55.674;37.468;2022-09-16T03:23:24;10.05;;;5.03;;
49177;SDS011;35016;55.674;37.468;2022-09-16T03:28:36;9.75;;;5.60;;
49177;SDS011;35016;55.674;37.468;2022-09-16T03:34:40;14.30;;;6.80;;
49177;SDS011;35016;55.674;37.468;2022-09-16T03:37:30;9.43;;;4.53;;
49177;SDS011;35016;55.674;37.468;2022-09-16T03:40:04;11.48;;;5.60;;
49177;SDS011;35016;55.674;37.468;2022-09-16T03:42:38;10.05;;;5.50;;
49177;SDS011;35016;55.674;37.468;2022-09-16T03:45:06;11.18;;;6.72;;
49177;SDS011;35016;55.674;37.468;2022-09-16T03:47:34;9.80;;;5.00;;
49177;SDS011;35016;55.674;37.468;2022-09-16T03:50:01;10.38;;;6.75;;
49177;SDS011;35016;55.674;37.468;2022-09-16T03:52:31;12.63;;;6.30;;
49177;SDS011;35016;55.674;37.468;2022-09-16T03:54:58;10.07;;;4.72;;
49177;SDS011;35016;55.674;37.468;2022-09-16T03:57:26;9.75;;;5.00;;
49177;SDS011;35016;55.674;37.468;2022-09-16T03:59:59;9.30;;;5.00;;
49177;SDS011;35016;55.674;37.468;2022-09-16T04:02:26;10.07;;;4.78;;
49177;SDS011;35016;55.674;37.468;2022-09-16T04:04:57;10.10;;;5.70;;
49177;SDS011;35016;55.674;37.468;2022-09-16T04:07:25;11.52;;;5.78;;
49177;SDS011;35016;55.674;37.468;2022-09-16T04:09:53;11.32;;;6.13;;
49177;SDS011;35016;55.674;37.468;2022-09-16T04:12:20;10.85;;;5.65;;
49177;SDS011;35016;55.674;37.468;2022-09-16T04:14:57;10.57;;;5.70;;
49177;SDS011;35016;55.674;37.468;2022-09-16T04:17:30;10.98;;;6.63;;
49177;SDS011;35016;55.674;37.468;2022-09-16T04:19:58;12.98;;;6.78;;
49177;SDS011;35016;55.674;37.468;2022-09-16T04:22:33;10.38;;;6.20;;
49177;SDS011;35016;55.674;37.468;2022-09-16T04:25:02;9.75;;;6.38;;
49177;SDS011;35016;55.674;37.468;2022-09-16T04:27:30;13.27;;;7.28;;
49177;SDS011;35016;55.674;37.468;2022-09-16T04:29:57;10.55;;;6.50;;
49177;SDS011;35016;55.674;37.468;2022-09-16T04:32:26;12.00;;;6.32;;
49177;SDS011;35016;55.674;37.468;2022-09-16T04:34:53;12.35;;;5.80;;
49177;SDS011;35016;55.674;37.468;2022-09-16T04:37:21;10.68;;;7.13;;
49177;SDS011;35016;55.674;37.468;2022-09-16T04:39:50;12.38;;;6.25;;
49177;SDS011;35016;55.674;37.468;2022-09-16T04:42:20;10.80;;;5.75;;
49177;SDS011;35016;55.674;37.468;2022-09-16T04:44:49;10.68;;;6.60;;
49177;SDS011;35016;55.674;37.468;2022-09-16T04:47:20;10.73;;;6.22;;
49177;SDS011;35016;55.674;37.468;2022-09-16T04:49:49;13.60;;;6.30;;
49177;SDS011;35016;55.674;37.468;2022-09-16T04:52:17;11.73;;;6.97;;
49177;SDS011;35016;55.674;37.468;2022-09-16T04:54:45;12.07;;;7.35;;
49177;SDS011;35016;55.674;37.468;2022-09-16T04:57:12;10.02;;;6.18;;
49177;SDS011;35016;55.674;37.468;2022-09-16T04:59:48;12.70;;;7.35;;
49177;SDS011;35016;55.674;37.468;2022-09-16T05:02:15;13.20;;;6.90;;
49177;SDS011;35016;55.674;37.468;2022-09-16T05:04:56;13.77;;;7.38;;
49177;SDS011;35016;55.674;37.468;2022-09-16T05:11:28;11.35;;;7.03;;
49177;SDS011;35016;55.674;37.468;2022-09-16T05:17:31;10.80;;;7.07;;
49177;SDS011;35016;55.674;37.468;2022-09-16T05:20:17;11.15;;;5.88;;
49177;SDS011;35016;55.674;37.468;2022-09-16T05:22:50;11.35;;;7.30;;
49177;SDS011;35016;55.674;37.468;2022-09-16T05:25:21;12.20;;;7.07;;
49177;SDS011;35016;55.674;37.468;2022-09-16T05:27:49;11.38;;;6.70;;
49177;SDS011;35016;55.674;37.468;2022-09-16T05:30:36;11.00;;;6.70;;
49177;SDS011;35016;55.674;37.468;2022-09-16T05:33:03;14.15;;;6.85;;
49177;SDS011;35016;55.674;37.468;2022-09-16T05:35:35;11.10;;;6.72;;
49177;SDS011;35016;55.674;37.468;2022-09-16T05:38:11;12.80;;;6.75;;
49177;SDS011;35016;55.674;37.468;2022-09-16T05:40:39;13.38;;;7.55;;
49177;SDS011;35016;55.674;37.468;2022-09-16T05:43:07;12.35;;;7.05;;
49177;SDS011;35016;55.674;37.468;2022-09-16T05:45:35;12.10;;;7.82;;
49177;SDS011;35016;55.674;37.468;2022-09-16T05:48:05;10.85;;;6.30;;
49177;SDS011;35016;55.674;37.468;2022-09-16T05:50:33;12.85;;;7.82;;
49177;SDS011;35016;55.674;37.468;2022-09-16T05:53:00;13.40;;;7.45;;
49177;SDS011;35016;55.674;37.468;2022-09-16T05:55:30;14.38;;;7.13;;
49177;SDS011;35016;55.674;37.468;2022-09-16T05:57:58;15.10;;;7.28;;
49177;SDS011;35016;55.674;37.468;2022-09-16T06:00:25;11.02;;;6.00;;
49177;SDS011;35016;55.674;37.468;2022-09-16T06:02:52;12.65;;;8.20;;
49177;SDS011;35016;55.674;37.468;2022-09-16T06:05:20;14.57;;;8.18;;
49177;SDS011;35016;55.674;37.468;2022-09-16T06:07:48;11.55;;;7.28;;
49177;SDS011;35016;55.674;37.468;2022-09-16T06:10:15;14.73;;;7.55;;
49177;SDS011;35016;55.674;37.468;2022-09-16T06:12:48;11.45;;;7.05;;
49177;SDS011;35016;55.674;37.468;2022-09-16T06:15:27;12.93;;;8.23;;
49177;SDS011;35016;55.674;37.468;2022-09-16T06:18:23;13.15;;;7.80;;
49177;SDS011;35016;55.674;37.468;2022-09-16T06:21:09;13.02;;;7.70;;
49177;SDS011;35016;55.674;37.468;2022-09-16T06:23:48;13.10;;;7.50;;
49177;SDS011;35016;55.674;37.468;2022-09-16T06:26:22;12.75;;;8.50;;
49177;SDS011;35016;55.674;37.468;2022-09-16T06:28:51;12.77;;;7.03;;
49177;SDS011;35016;55.674;37.468;2022-09-16T06:31:23;15.20;;;8.23;;
49177;SDS011;35016;55.674;37.468;2022-09-16T06:34:19;14.07;;;8.95;;
49177;SDS011;35016;55.674;37.468;2022-09-16T06:36:55;14.85;;;7.80;;
49177;SDS011;35016;55.674;37.468;2022-09-16T06:40:21;11.35;;;7.28;;
49177;SDS011;35016;55.674;37.468;2022-09-16T06:43:04;14.68;;;8.45;;
49177;SDS011;35016;55.674;37.468;2022-09-16T06:55:01;12.85;;;7.60;;
49177;SDS011;35016;55.674;37.468;2022-09-16T06:57:37;11.10;;;7.15;;
49177;SDS011;35016;55.674;37.468;2022-09-16T07:00:05;13.15;;;8.82;;
49177;SDS011;35016;55.674;37.468;2022-09-16T07:02:35;12.18;;;7.47;;
49177;SDS011;35016;55.674;37.468;2022-09-16T07:05:03;13.07;;;8.18;;
49177;SDS011;35016;55.674;37.468;2022-09-16T07:07:31;11.95;;;7.78;;
49177;SDS011;35016;55.674;37.468;2022-09-16T07:10:02;14.13;;;8.68;;
49177;SDS011;35016;55.674;37.468;2022-09-16T07:12:30;12.48;;;7.38;;
49177;SDS011;35016;55.674;37.468;2022-09-16T07:14:57;13.52;;;8.20;;
49177;SDS011;35016;55.674;37.468;2022-09-16T07:17:25;11.57;;;7.45;;
49177;SDS011;35016;55.674;37.468;2022-09-16T07:19:53;13.88;;;8.40;;
49177;SDS011;35016;55.674;37.468;2022-09-16T07:22:21;12.10;;;7.38;;
49177;SDS011;35016;55.674;37.468;2022-09-16T07:24:51;11.55;;;7.95;;
49177;SDS011;35016;55.674;37.468;2022-09-16T07:27:18;12.05;;;7.72;;
49177;SDS011;35016;55.674;37.468;2022-09-16T07:29:46;11.07;;;7.35;;
49177;SDS011;35016;55.674;37.468;2022-09-16T07:32:13;14.27;;;8.13;;
49177;SDS011;35016;55.674;37.468;2022-09-16T07:34:41;13.35;;;9.38;;
49177;SDS011;35016;55.674;37.468;2022-09-16T07:37:11;14.07;;;9.07;;
49177;SDS011;35016;55.674;37.468;2022-09-16T07:39:42;12.25;;;7.88;;
49177;SDS011;35016;55.674;37.468;2022-09-16T07:42:10;10.82;;;7.57;;
49177;SDS011;35016;55.674;37.468;2022-09-16T07:44:37;10.73;;;7.05;;
49177;SDS011;35016;55.674;37.468;2022-09-16T07:47:04;13.48;;;8.52;;
49177;SDS011;35016;55.674;37.468;2022-09-16T07:49:32;16.42;;;7.72;;
49177;SDS011;35016;55.674;37.468;2022-09-16T07:52:00;12.38;;;8.35;;
49177;SDS011;35016;55.674;37.468;2022-09-16T07:54:30;12.50;;;7.32;;
49177;SDS011;35016;55.674;37.468;2022-09-16T07:56:57;13.43;;;8.98;;
49177;SDS011;35016;55.674;37.468;2022-09-16T07:59:26;12.05;;;8.27;;
49177;SDS011;35016;55.674;37.468;2022-09-16T08:01:55;12.63;;;7.85;;
49177;SDS011;35016;55.674;37.468;2022-09-16T08:04:22;13.68;;;8.23;;
49177;SDS011;35016;55.674;37.468;2022-09-16T08:06:50;10.95;;;6.50;;
49177;SDS011;35016;55.674;37.468;2022-09-16T08:09:17;11.82;;;8.15;;
49177;SDS011;35016;55.674;37.468;2022-09-16T08:12:05;11.02;;;7.45;;
49177;SDS011;35016;55.674;37.468;2022-09-16T08:14:36;11.18;;;7.30;;
49177;SDS011;35016;55.674;37.468;2022-09-16T08:17:03;15.48;;;7.38;;
49177;SDS011;35016;55.674;37.468;2022-09-16T08:19:30;12.00;;;7.53;;
49177;SDS011;35016;55.674;37.468;2022-09-16T08:22:00;11.80;;;6.97;;
49177;SDS011;35016;55.674;37.468;2022-09-16T08:24:30;10.35;;;6.05;;
49177;SDS011;35016;55.674;37.468;2022-09-16T08:26:58;10.27;;;6.05;;
49177;SDS011;35016;55.674;37.468;2022-09-16T08:29:25;14.07;;;6.70;;
49177;SDS011;35016;55.674;37.468;2022-09-16T08:31:52;11.80;;;8.07;;
49177;SDS011;35016;55.674;37.468;2022-09-16T08:34:20;11.80;;;6.97;;
49177;SDS011;35016;55.674;37.468;2022-09-16T08:36:47;11.02;;;5.75;;
49177;SDS011;35016;55.674;37.468;2022-09-16T08:39:17;11.07;;;6.90;;
49177;SDS011;35016;55.674;37.468;2022-09-16T08:50:13;10.88;;;6.95;;
49177;SDS011;35016;55.674;37.468;2022-09-16T08:52:59;10.35;;;6.80;;
49177;SDS011;35016;55.674;37.468;2022-09-16T08:55:33;10.95;;;6.93;;
49177;SDS011;35016;55.674;37.468;2022-09-16T08:58:20;12.60;;;7.00;;
49177;SDS011;35016;55.674;37.468;2022-09-16T09:00:55;10.98;;;6.30;;
49177;SDS011;35016;55.674;37.468;2022-09-16T09:06:01;10.75;;;6.35;;
49177;SDS011;35016;55.674;37.468;2022-09-16T09:14:11;12.13;;;7.03;;
49177;SDS011;35016;55.674;37.468;2022-09-16T09:19:52;11.82;;;6.88;;
49177;SDS011;35016;55.674;37.468;2022-09-16T09:22:41;15.40;;;7.20;;
49177;SDS011;35016;55.674;37.468;2022-09-16T09:31:33;10.60;;;6.55;;
49177;SDS011;35016;55.674;37.468;2022-09-16T09:42:23;12.45;;;7.25;;
49177;SDS011;35016;55.674;37.468;2022-09-16T09:45:15;11.18;;;6.35;;
49177;SDS011;35016;55.674;37.468;2022-09-16T09:47:51;11.50;;;6.78;;
49177;SDS011;35016;55.674;37.468;2022-09-16T09:50:32;12.93;;;6.32;;
49177;SDS011;35016;55.674;37.468;2022-09-16T09:58:42;10.57;;;5.03;;
49177;SDS011;35016;55.674;37.468;2022-09-16T10:01:19;10.20;;;4.90;;
49177;SDS011;35016;55.674;37.468;2022-09-16T10:03:48;11.18;;;6.30;;
49177;SDS011;35016;55.674;37.468;2022-09-16T10:06:18;11.10;;;5.82;;
49177;SDS011;35016;55.674;37.468;2022-09-16T10:08:53;11.07;;;6.07;;
49177;SDS011;35016;55.674;37.468;2022-09-16T10:11:25;13.90;;;5.25;;
49177;SDS011;35016;55.674;37.468;2022-09-16T10:13:55;11.45;;;5.75;;
49177;SDS011;35016;55.674;37.468;2022-09-16T10:16:29;11.27;;;5.80;;
49177;SDS011;35016;55.674;37.468;2022-09-16T10:19:04;9.50;;;5.32;;
49177;SDS011;35016;55.674;37.468;2022-09-16T10:21:48;10.18;;;5.35;;
49177;SDS011;35016;55.674;37.468;2022-09-16T10:26:55;9.40;;;5.15;;
49177;SDS011;35016;55.674;37.468;2022-09-16T10:29:23;9.55;;;5.28;;
49177;SDS011;35016;55.674;37.468;2022-09-16T10:31:50;11.07;;;5.97;;
49177;SDS011;35016;55.674;37.468;2022-09-16T10:34:38;10.38;;;4.90;;
49177;SDS011;35016;55.674;37.468;2022-09-16T10:37:14;9.05;;;5.47;;
49177;SDS011;35016;55.674;37.468;2022-09-16T10:39:53;10.43;;;5.95;;
49177;SDS011;35016;55.674;37.468;2022-09-16T10:42:24;11.95;;;6.00;;
49177;SDS011;35016;55.674;37.468;2022-09-16T10:45:27;11.25;;;5.28;;
49177;SDS011;35016;55.674;37.468;2022-09-16T10:48:01;9.73;;;5.70;;
49177;SDS011;35016;55.674;37.468;2022-09-16T10:50:38;9.63;;;4.93;;
49177;SDS011;35016;55.674;37.468;2022-09-16T10:53:20;10.52;;;5.68;;
49177;SDS011;35016;55.674;37.468;2022-09-16T10:56:15;10.63;;;5.82;;
49177;SDS011;35016;55.674;37.468;2022-09-16T10:58:44;8.90;;;4.85;;
49177;SDS011;35016;55.674;37.468;2022-09-16T11:01:29;10.13;;;5.53;;
49177;SDS011;35016;55.674;37.468;2022-09-16T11:18:23;9.50;;;5.72;;
49177;SDS011;35016;55.674;37.468;2022-09-16T11:23:58;11.38;;;5.65;;
49177;SDS011;35016;55.674;37.468;2022-09-16T11:38:05;9.07;;;4.07;;
49177;SDS011;35016;55.674;37.468;2022-09-16T11:47:06;9.85;;;4.93;;
49177;SDS011;35016;55.674;37.468;2022-09-16T11:57:12;9.73;;;4.75;;
49177;SDS011;35016;55.674;37.468;2022-09-16T12:10:18;10.07;;;5.78;;
49177;SDS011;35016;55.674;37.468;2022-09-16T12:12:53;14.25;;;6.43;;
49177;SDS011;35016;55.674;37.468;2022-09-16T12:15:49;12.98;;;6.93;;
49177;SDS011;35016;55.674;37.468;2022-09-16T12:18:18;10.57;;;4.72;;
49177;SDS011;35016;55.674;37.468;2022-09-16T12:20:52;10.90;;;5.75;;
49177;SDS011;35016;55.674;37.468;2022-09-16T12:23:27;10.40;;;5.95;;
49177;SDS011;35016;55.674;37.468;2022-09-16T12:26:11;11.02;;;5.88;;
49177;SDS011;35016;55.674;37.468;2022-09-16T12:28:55;11.90;;;5.57;;
49177;SDS011;35016;55.674;37.468;2022-09-16T12:31:31;9.88;;;5.03;;
49177;SDS011;35016;55.674;37.468;2022-09-16T12:34:09;11.63;;;6.50;;
49177;SDS011;35016;55.674;37.468;2022-09-16T12:36:41;12.23;;;7.38;;
49177;SDS011;35016;55.674;37.468;2022-09-16T12:39:13;13.27;;;6.45;;
49177;SDS011;35016;55.674;37.468;2022-09-16T12:42:08;11.85;;;6.00;;
49177;SDS011;35016;55.674;37.468;2022-09-16T13:01:31;13.77;;;7.25;;
49177;SDS011;35016;55.674;37.468;2022-09-16T13:04:30;12.20;;;6.13;;
49177;SDS011;35016;55.674;37.468;2022-09-16T13:07:03;11.20;;;6.55;;
49177;SDS011;35016;55.674;37.468;2022-09-16T13:09:34;13.10;;;7.43;;
49177;SDS011;35016;55.674;37.468;2022-09-16T13:12:05;10.52;;;6.00;;
49177;SDS011;35016;55.674;37.468;2022-09-16T13:15:04;13.35;;;7.25;;
49177;SDS011;35016;55.674;37.468;2022-09-16T13:17:34;12.88;;;7.20;;
49177;SDS011;35016;55.674;37.468;2022-09-16T13:28:36;10.20;;;6.10;;
49177;SDS011;35016;55.674;37.468;2022-09-16T13:33:47;11.02;;;6.25;;
49177;SDS011;35016;55.674;37.468;2022-09-16T13:36:29;11.10;;;6.45;;
49177;SDS011;35016;55.674;37.468;2022-09-16T13:38:59;14.63;;;6.90;;
49177;SDS011;35016;55.674;37.468;2022-09-16T13:49:44;12.88;;;8.45;;
49177;SDS011;35016;55.674;37.468;2022-09-16T13:52:12;13.20;;;8.40;;
49177;SDS011;35016;55.674;37.468;2022-09-16T13:54:49;12.13;;;8.05;;
49177;SDS011;35016;55.674;37.468;2022-09-16T14:04:11;11.07;;;7.38;;
49177;SDS011;35016;55.674;37.468;2022-09-16T14:07:10;11.52;;;6.88;;
49177;SDS011;35016;55.674;37.468;2022-09-16T14:12:37;12.90;;;8.00;;
49177;SDS011;35016;55.674;37.468;2022-09-16T14:15:11;12.93;;;6.70;;
49177;SDS011;35016;55.674;37.468;2022-09-16T14:17:41;14.32;;;7.22;;
49177;SDS011;35016;55.674;37.468;2022-09-16T14:20:21;12.50;;;6.85;;
49177;SDS011;35016;55.674;37.468;2022-09-16T14:23:00;12.93;;;7.22;;
49177;SDS011;35016;55.674;37.468;2022-09-16T14:25:34;13.48;;;6.68;;
49177;SDS011;35016;55.674;37.468;2022-09-16T14:28:07;11.20;;;7.32;;
49177;SDS011;35016;55.674;37.468;2022-09-16T14:30:45;12.25;;;6.57;;
49177;SDS011;35016;55.674;37.468;2022-09-16T14:34:04;11.65;;;7.38;;
49177;SDS011;35016;55.674;37.468;2022-09-16T14:36:26;12.75;;;8.43;;
49177;SDS011;35016;55.674;37.468;2022-09-16T14:39:17;11.63;;;6.70;;
49177;SDS011;35016;55.674;37.468;2022-09-16T14:42:15;10.32;;;6.35;;
49177;SDS011;35016;55.674;37.468;2022-09-16T14:44:48;12.70;;;7.43;;
49177;SDS011;35016;55.674;37.468;2022-09-16T14:47:32;11.07;;;5.93;;
49177;SDS011;35016;55.674;37.468;2022-09-16T14:50:22;12.20;;;7.25;;
49177;SDS011;35016;55.674;37.468;2022-09-16T14:52:57;11.40;;;6.22;;
49177;SDS011;35016;55.674;37.468;2022-09-16T14:55:31;12.90;;;7.13;;
49177;SDS011;35016;55.674;37.468;2022-09-16T14:58:01;12.40;;;6.20;;
49177;SDS011;35016;55.674;37.468;2022-09-16T15:00:35;10.35;;;5.93;;
49177;SDS011;35016;55.674;37.468;2022-09-16T15:03:33;11.90;;;6.68;;
49177;SDS011;35016;55.674;37.468;2022-09-16T15:06:10;12.18;;;7.10;;
49177;SDS011;35016;55.674;37.468;2022-09-16T15:08:46;15.80;;;6.82;;
49177;SDS011;35016;55.674;37.468;2022-09-16T15:11:21;11.15;;;7.05;;
49177;SDS011;35016;55.674;37.468;2022-09-16T15:14:14;10.50;;;5.93;;
49177;SDS011;35016;55.674;37.468;2022-09-16T15:16:50;12.43;;;6.32;;
49177;SDS011;35016;55.674;37.468;2022-09-16T15:19:25;10.07;;;6.30;;
49177;SDS011;35016;55.674;37.468;2022-09-16T15:21:59;12.82;;;6.53;;
49177;SDS011;35016;55.674;37.468;2022-09-16T15:24:31;10.18;;;5.63;;
49177;SDS011;35016;55.674;37.468;2022-09-16T15:26:59;11.73;;;6.35;;
49177;SDS011;35016;55.674;37.468;2022-09-16T15:29:32;9.77;;;5.20;;
49177;SDS011;35016;55.674;37.468;2022-09-16T15:32:05;8.43;;;4.70;;
49177;SDS011;35016;55.674;37.468;2022-09-16T15:34:40;10.38;;;5.32;;
49177;SDS011;35016;55.674;37.468;2022-09-16T15:37:27;10.07;;;5.65;;
49177;SDS011;35016;55.674;37.468;2022-09-16T15:40:09;8.50;;;4.30;;
49177;SDS011;35016;55.674;37.468;2022-09-16T15:42:47;10.35;;;5.47;;
49177;SDS011;35016;55.674;37.468;2022-09-16T15:46:00;9.95;;;5.07;;
49177;SDS011;35016;55.674;37.468;2022-09-16T15:48:35;9.85;;;4.28;;
49177;SDS011;35016;55.674;37.468;2022-09-16T16:11:15;9.43;;;5.85;;
49177;SDS011;35016;55.674;37.468;2022-09-16T16:23:09;9.77;;;5.20;;
49177;SDS011;35016;55.674;37.468;2022-09-16T16:30:51;11.07;;;5.88;;
49177;SDS011;35016;55.674;37.468;2022-09-16T16:34:08;10.15;;;4.93;;
49177;SDS011;35016;55.674;37.468;2022-09-16T16:37:10;11.82;;;6.03;;
49177;SDS011;35016;55.674;37.468;2022-09-16T16:40:27;11.18;;;6.45;;
49177;SDS011;35016;55.674;37.468;2022-09-16T16:44:17;9.93;;;6.00;;
49177;SDS011;35016;55.674;37.468;2022-09-16T16:47:07;9.60;;;6.07;;
49177;SDS011;35016;55.674;37.468;2022-09-16T16:49:57;11.43;;;6.15;;
49177;SDS011;35016;55.674;37.468;2022-09-16T16:53:53;11.32;;;6.97;;
49177;SDS011;35016;55.674;37.468;2022-09-16T16:56:52;10.52;;;6.55;;
49177;SDS011;35016;55.674;37.468;2022-09-16T16:59:25;11.00;;;6.95;;
49177;SDS011;35016;55.674;37.468;2022-09-16T17:02:52;12.65;;;7.47;;
49177;SDS011;35016;55.674;37.468;2022-09-16T17:25:29;10.80;;;6.95;;
49177;SDS011;35016;55.674;37.468;2022-09-16T17:36:12;12.93;;;7.28;;
49177;SDS011;35016;55.674;37.468;2022-09-16T17:39:53;11.45;;;8.32;;
49177;SDS011;35016;55.674;37.468;2022-09-16T17:42:49;10.25;;;6.53;;
49177;SDS011;35016;55.674;37.468;2022-09-16T17:45:45;13.15;;;7.85;;
49177;SDS011;35016;55.674;37.468;2022-09-16T18:30:33;12.43;;;6.75;;
49177;SDS011;35016;55.674;37.468;2022-09-16T18:42:10;11.77;;;6.80;;
49177;SDS011;35016;55.674;37.468;2022-09-16T18:44:56;11.90;;;6.65;;
49177;SDS011;35016;55.674;37.468;2022-09-16T18:54:54;10.52;;;6.93;;
49177;SDS011;35016;55.674;37.468;2022-09-16T18:57:46;12.55;;;6.45;;
49177;SDS011;35016;55.674;37.468;2022-09-16T19:00:28;14.38;;;7.57;;
49177;SDS011;35016;55.674;37.468;2022-09-16T19:03:01;11.13;;;6.32;;
49177;SDS011;35016;55.674;37.468;2022-09-16T19:05:28;11.50;;;7.35;;
49177;SDS011;35016;55.674;37.468;2022-09-16T19:07:55;13.73;;;7.40;;
49177;SDS011;35016;55.674;37.468;2022-09-16T19:10:22;12.52;;;7.90;;
49177;SDS011;35016;55.674;37.468;2022-09-16T19:12:55;14.47;;;8.57;;
49177;SDS011;35016;55.674;37.468;2022-09-16T19:15:27;11.75;;;7.05;;
49177;SDS011;35016;55.674;37.468;2022-09-16T19:17:56;13.82;;;8.05;;
49177;SDS011;35016;55.674;37.468;2022-09-16T19:20:24;11.40;;;7.65;;
49177;SDS011;35016;55.674;37.468;2022-09-16T19:22:51;12.90;;;8.90;;
49177;SDS011;35016;55.674;37.468;2022-09-16T19:25:30;12.40;;;8.73;;
49177;SDS011;35016;55.674;37.468;2022-09-16T19:32:40;10.65;;;6.60;;
49177;SDS011;35016;55.674;37.468;2022-09-16T19:39:46;11.10;;;6.30;;
49177;SDS011;35016;55.674;37.468;2022-09-16T19:42:15;10.85;;;8.00;;
49177;SDS011;35016;55.674;37.468;2022-09-16T19:44:42;11.20;;;8.25;;
49177;SDS011;35016;55.674;37.468;2022-09-16T19:47:09;12.30;;;7.43;;
49177;SDS011;35016;55.674;37.468;2022-09-16T19:49:37;12.43;;;7.53;;
49177;SDS011;35016;55.674;37.468;2022-09-16T19:52:05;13.60;;;7.82;;
49177;SDS011;35016;55.674;37.468;2022-09-16T19:54:32;10.13;;;6.60;;
49177;SDS011;35016;55.674;37.468;2022-09-16T19:57:01;10.48;;;6.82;;
49177;SDS011;35016;55.674;37.468;2022-09-16T19:59:28;10.80;;;6.97;;
49177;SDS011;35016;55.674;37.468;2022-09-16T20:01:56;12.02;;;7.18;;
49177;SDS011;35016;55.674;37.468;2022-09-16T20:04:25;11.52;;;7.80;;
49177;SDS011;35016;55.674;37.468;2022-09-16T20:06:53;11.95;;;7.10;;
49177;SDS011;35016;55.674;37.468;2022-09-16T20:09:20;11.00;;;7.38;;
49177;SDS011;35016;55.674;37.468;2022-09-16T20:11:47;11.18;;;8.50;;
49177;SDS011;35016;55.674;37.468;2022-09-16T20:14:19;10.35;;;7.20;;
49177;SDS011;35016;55.674;37.468;2022-09-16T20:16:47;10.88;;;7.80;;
49177;SDS011;35016;55.674;37.468;2022-09-16T20:19:17;12.02;;;7.70;;
49177;SDS011;35016;55.674;37.468;2022-09-16T20:21:45;13.07;;;7.85;;
49177;SDS011;35016;55.674;37.468;2022-09-16T20:24:15;12.32;;;8.27;;
49177;SDS011;35016;55.674;37.468;2022-09-16T20:26:44;12.05;;;6.40;;
49177;SDS011;35016;55.674;37.468;2022-09-16T20:29:13;10.88;;;7.68;;
49177;SDS011;35016;55.674;37.468;2022-09-16T20:31:40;14.18;;;8.15;;
49177;SDS011;35016;55.674;37.468;2022-09-16T20:34:08;11.40;;;7.47;;
49177;SDS011;35016;55.674;37.468;2022-09-16T20:36:39;14.05;;;8.55;;
